Time;durP1;ratioP1;P1;durP2;ratioP2;P2;SDS_P1;SDS_P2;PMS_P1;PMS_P2;Temp;Humidity;BMP_temperature;BMP_pressure;BME280_temperature;BME280_humidity;BME280_pressure;Samples;Min_cycle;Max_cycle;Signal;HPM_P1;HPM_P2
2022/07/16 00:02:26;;;;;;;;;;;;;;;;;;5118696;28;19918;-41
2022/07/16 00:04:51;;;;;;;;;;;;;;;;;;5118478;28;19920;-40
2022/07/16 00:07:16;;;;;;;;;;;;;;;;;;5118610;28;19909;-40
2022/07/16 00:09:41;;;;;;;;;;;;;;;;;;5117503;28;19908;-41
2022/07/16 00:12:06;;;;;;;;;;;;;;;;;;5118386;28;19925;-40
2022/07/16 00:14:31;;;;;;;;;;;;;;;;;;5118201;28;19908;-42
2022/07/16 00:16:56;;;;;;;;;;;;;;;;;;5117806;27;19907;-41
2022/07/16 00:19:23;;;;;;;;;;;;;;;;;;5117386;28;20398;-42
2022/07/16 00:21:48;;;;;;;;;;;;;;;;;;5118413;28;20269;-42
2022/07/16 00:24:14;;;;;;;;;;;;;;;;;;5118376;28;19908;-42
2022/07/16 00:26:39;;;;;;;;;;;;;;;;;;5118384;28;19943;-42
2022/07/16 00:29:04;;;;;;;;;;;;;;;;;;5118663;28;19918;-39
2022/07/16 00:31:29;;;;;;;;;;;;;;;;;;5117923;28;19934;-42
2022/07/16 00:33:54;;;;;;;;;;;;;;;;;;5118214;28;20256;-41
2022/07/16 00:36:19;;;;;;;;;;;;;;;;;;5118000;28;19908;-42
2022/07/16 00:38:44;;;;;;;;;;;;;;;;;;5118329;28;19915;-40
2022/07/16 00:41:16;;;;;;;;;;;;;;;;;;5117989;28;19908;-42
2022/07/16 00:43:41;;;;;;;;;;;;;;;;;;5117784;28;19907;-42
2022/07/16 00:46:06;;;;;;;;;;;;;;;;;;5118080;28;19954;-42
2022/07/16 00:48:31;;;;;;;;;;;;;;;;;;5117951;28;19954;-42
2022/07/16 00:50:56;;;;;;;;;;;;;;;;;;5118042;27;19943;-41
2022/07/16 00:53:21;;;;;;;;;;;;;;;;;;5117658;28;20007;-41
2022/07/16 00:55:46;;;;;;;;;;;;;;;;;;5117655;28;19999;-41
2022/07/16 00:58:12;;;;;;;;;;;;;;;;;;5117224;28;20010;-42
2022/07/16 01:00:37;;;;;;;;;;;;;;;;;;5117558;28;19904;-40
2022/07/16 01:03:02;;;;;;;;;;;;;;;;;;5117524;28;20262;-42
2022/07/16 01:05:27;;;;;;;;;;;;;;;;;;5116777;28;20343;-42
2022/07/16 01:07:52;;;;;;;;;;;;;;;;;;5117387;28;19912;-41
2022/07/16 01:10:18;;;;;;;;;;;;;;;;;;5117335;28;19908;-43
2022/07/16 01:12:43;;;;;;;;;;;;;;;;;;5117253;28;20362;-42
2022/07/16 01:15:08;;;;;;;;;;;;;;;;;;5116686;28;19990;-41
2022/07/16 01:17:33;;;;;;;;;;;;;;;;;;5116696;28;20350;-41
2022/07/16 01:19:58;;;;;;;;;;;;;;;;;;5116367;28;19979;-41
2022/07/16 01:22:24;;;;;;;;;;;;;;;;;;5116492;28;19961;-42
2022/07/16 01:24:49;;;;;;;;;;;;;;;;;;5115458;28;19958;-41
2022/07/16 01:27:14;;;;;;;;;;;;;;;;;;5116782;28;19988;-41
2022/07/16 01:29:39;;;;;;;;;;;;;;;;;;5116581;28;20053;-42
2022/07/16 01:32:04;;;;;;;;;;;;;;;;;;5116219;28;20076;-42
2022/07/16 01:34:29;;;;;;;;;;;;;;;;;;5115252;28;20304;-42
2022/07/16 01:36:54;;;;;;;;;;;;;;;;;;5117101;28;19909;-41
2022/07/16 01:39:19;;;;;;;;;;;;;;;;;;5116714;28;20007;-41
2022/07/16 01:41:44;;;;;;;;;;;;;;;;;;5115933;28;20362;-42
2022/07/16 01:44:09;;;;;;;;;;;;;;;;;;5115992;28;19939;-42
2022/07/16 01:46:35;;;;;;;;;;;;;;;;;;5116226;28;19990;-41
2022/07/16 01:49:00;;;;;;;;;;;;;;;;;;5115842;28;19996;-42
2022/07/16 01:51:25;;;;;;;;;;;;;;;;;;5116295;28;19999;-41
2022/07/16 01:53:50;;;;;;;;;;;;;;;;;;5116080;28;20014;-42
2022/07/16 01:56:15;;;;;;;;;;;;;;;;;;5116660;28;20006;-42
2022/07/16 01:58:40;;;;;;;;;;;;;;;;;;5116493;28;19999;-41
2022/07/16 02:01:05;;;;;;;;;;;;;;;;;;5116180;28;20457;-39
2022/07/16 02:03:30;;;;;;;;;;;;;;;;;;5116006;28;19951;-42
2022/07/16 02:05:55;;;;;;;;;;;;;;;;;;5115930;28;20015;-42
2022/07/16 02:08:20;;;;;;;;;;;;;;;;;;5115904;28;19908;-42
2022/07/16 02:10:46;;;;;;;;;;;;;;;;;;5116135;28;19908;-42
2022/07/16 02:13:11;;;;;;;;;;;;;;;;;;5115778;28;19911;-42
2022/07/16 02:15:36;;;;;;;;;;;;;;;;;;5115793;28;19912;-42
2022/07/16 02:18:01;;;;;;;;;;;;;;;;;;5115915;28;19908;-41
2022/07/16 02:20:26;;;;;;;;;;;;;;;;;;5115978;28;19908;-41
2022/07/16 02:22:51;;;;;;;;;;;;;;;;;;5116162;28;20373;-41
2022/07/16 02:25:16;;;;;;;;;;;;;;;;;;5115673;28;19911;-42
2022/07/16 02:28:05;;;;;;;;;;;;;;;;;;5115808;28;19914;-41
2022/07/16 02:30:26;;;;;;;;;;;;;;;;;;5115465;28;19908;-42
2022/07/16 02:32:51;;;;;;;;;;;;;;;;;;5115541;28;20002;-42
2022/07/16 02:35:17;;;;;;;;;;;;;;;;;;5115820;28;19907;-41
2022/07/16 02:37:42;;;;;;;;;;;;;;;;;;5115843;28;20037;-43
2022/07/16 02:40:07;;;;;;;;;;;;;;;;;;5115776;28;19907;-41
2022/07/16 02:42:32;;;;;;;;;;;;;;;;;;5113366;28;19912;-42
2022/07/16 02:44:57;;;;;;;;;;;;;;;;;;5117224;28;19959;-41
2022/07/16 02:47:22;;;;;;;;;;;;;;;;;;5117206;28;19937;-41
2022/07/16 02:49:47;;;;;;;;;;;;;;;;;;5116385;28;19912;-41
2022/07/16 02:52:12;;;;;;;;;;;;;;;;;;5119296;28;20359;-41
2022/07/16 02:54:37;;;;;;;;;;;;;;;;;;5119437;28;20239;-42
2022/07/16 02:57:02;;;;;;;;;;;;;;;;;;5119571;28;19915;-41
2022/07/16 02:59:28;;;;;;;;;;;;;;;;;;5119331;28;19915;-42
2022/07/16 03:01:53;;;;;;;;;;;;;;;;;;5119446;28;19907;-41
2022/07/16 03:04:18;;;;;;;;;;;;;;;;;;5119309;28;19908;-41
2022/07/16 03:06:43;;;;;;;;;;;;;;;;;;5118975;28;20343;-41
2022/07/16 03:09:08;;;;;;;;;;;;;;;;;;5111930;28;20318;-42
2022/07/16 03:11:33;;;;;;;;;;;;;;;;;;5098850;28;19916;-41
2022/07/16 03:13:58;;;;;;;;;;;;;;;;;;5098781;28;19955;-41
2022/07/16 03:16:24;;;;;;;;;;;;;;;;;;5098545;28;19990;-41
2022/07/16 03:18:49;;;;;;;;;;;;;;;;;;5098557;28;19951;-41
2022/07/16 03:21:14;;;;;;;;;;;;;;;;;;5098559;28;19936;-41
2022/07/16 03:23:39;;;;;;;;;;;;;;;;;;5098421;28;20359;-41
2022/07/16 03:26:04;;;;;;;;;;;;;;;;;;5098411;28;20279;-41
2022/07/16 03:28:29;;;;;;;;;;;;;;;;;;5098413;28;20363;-42
2022/07/16 03:30:54;;;;;;;;;;;;;;;;;;5097999;28;20359;-41
2022/07/16 03:33:19;;;;;;;;;;;;;;;;;;5098084;28;19990;-41
2022/07/16 03:35:44;;;;;;;;;;;;;;;;;;5098052;28;19912;-42
2022/07/16 03:40:53;;;;;;;;;;;;;;;;;;5098127;28;19938;-41
2022/07/16 03:43:18;;;;;;;;;;;;;;;;;;5098484;28;20337;-42
2022/07/16 03:45:43;;;;;;;;;;;;;;;;;;5098140;28;20300;-41
2022/07/16 03:48:08;;;;;;;;;;;;;;;;;;5098194;28;19939;-41
2022/07/16 03:50:33;;;;;;;;;;;;;;;;;;5098061;28;19915;-41
2022/07/16 03:52:59;;;;;;;;;;;;;;;;;;5096777;28;19926;-41
2022/07/16 03:55:24;;;;;;;;;;;;;;;;;;5097800;28;19908;-41
2022/07/16 03:57:49;;;;;;;;;;;;;;;;;;5097832;28;19961;-41
2022/07/16 04:00:14;;;;;;;;;;;;;;;;;;5097894;28;19908;-41
2022/07/16 04:02:39;;;;;;;;;;;;;;;;;;5097713;28;19946;-42
2022/07/16 04:05:04;;;;;;;;;;;;;;;;;;5097361;28;19947;-41
2022/07/16 04:07:29;;;;;;;;;;;;;;;;;;5097808;28;19962;-41
2022/07/16 04:09:54;;;;;;;;;;;;;;;;;;5097527;28;19969;-43
2022/07/16 04:12:20;;;;;;;;;;;;;;;;;;5097461;28;20010;-41
2022/07/16 04:14:45;;;;;;;;;;;;;;;;;;5097516;28;19918;-41
2022/07/16 04:17:10;;;;;;;;;;;;;;;;;;5097568;28;19953;-41
2022/07/16 04:19:35;;;;;;;;;;;;;;;;;;5097174;28;20263;-41
2022/07/16 04:22:00;;;;;;;;;;;;;;;;;;5097048;28;19981;-41
2022/07/16 04:24:26;;;;;;;;;;;;;;;;;;5097924;28;19969;-41
2022/07/16 04:26:51;;;;;;;;;;;;;;;;;;5098163;28;19934;-41
2022/07/16 04:29:16;;;;;;;;;;;;;;;;;;5097137;28;19977;-41
2022/07/16 04:31:41;;;;;;;;;;;;;;;;;;5097169;28;19915;-41
2022/07/16 04:34:06;;;;;;;;;;;;;;;;;;5096900;28;19919;-41
2022/07/16 04:36:31;;;;;;;;;;;;;;;;;;5096884;28;19908;-41
2022/07/16 04:38:56;;;;;;;;;;;;;;;;;;5097144;28;19908;-41
2022/07/16 04:41:21;;;;;;;;;;;;;;;;;;5096755;28;19908;-41
2022/07/16 04:43:46;;;;;;;;;;;;;;;;;;5096761;28;19915;-41
2022/07/16 04:46:12;;;;;;;;;;;;;;;;;;5097704;28;19966;-41
2022/07/16 04:48:37;;;;;;;;;;;;;;;;;;5096781;28;19961;-41
2022/07/16 04:51:02;;;;;;;;;;;;;;;;;;5096659;28;20420;-41
2022/07/16 04:53:27;;;;;;;;;;;;;;;;;;5096696;28;19938;-41
2022/07/16 04:55:52;;;;;;;;;;;;;;;;;;5096836;28;19915;-41
2022/07/16 04:58:17;;;;;;;;;;;;;;;;;;5096574;28;19908;-42
2022/07/16 05:00:42;;;;;;;;;;;;;;;;;;5096634;28;19919;-42
2022/07/16 05:03:08;;;;;;;;;;;;;;;;;;5096576;28;19920;-40
2022/07/16 05:05:33;;;;;;;;;;;;;;;;;;5096506;28;19927;-42
2022/07/16 05:07:58;;;;;;;;;;;;;;;;;;5096361;28;19961;-43
2022/07/16 05:10:24;;;;;;;;;;;;;;;;;;5095986;28;19946;-41
2022/07/16 05:12:49;;;;;;;;;;;;;;;;;;5095882;28;19916;-42
2022/07/16 05:15:14;;;;;;;;;;;;;;;;;;5096200;28;19951;-43
2022/07/16 05:17:39;;;;;;;;;;;;;;;;;;5096187;28;19954;-42
2022/07/16 05:20:04;;;;;;;;;;;;;;;;;;5096062;28;19908;-42
2022/07/16 05:22:29;;;;;;;;;;;;;;;;;;5096027;28;20274;-42
2022/07/16 05:24:54;;;;;;;;;;;;;;;;;;5096133;28;19930;-40
2022/07/16 05:27:20;;;;;;;;;;;;;;;;;;5096112;28;19991;-42
2022/07/16 05:29:45;;;;;;;;;;;;;;;;;;5095998;28;19955;-39
2022/07/16 05:32:10;;;;;;;;;;;;;;;;;;5096250;28;20363;-41
2022/07/16 05:34:35;;;;;;;;;;;;;;;;;;5096188;28;19908;-43
2022/07/16 05:37:00;;;;;;;;;;;;;;;;;;5095804;28;19908;-42
2022/07/16 05:39:25;;;;;;;;;;;;;;;;;;5096086;28;19908;-42
2022/07/16 05:41:50;;;;;;;;;;;;;;;;;;5096322;28;19909;-42
2022/07/16 05:44:15;;;;;;;;;;;;;;;;;;5095553;28;19916;-41
2022/07/16 05:46:40;;;;;;;;;;;;;;;;;;5095623;28;19973;-41
2022/07/16 05:49:05;;;;;;;;;;;;;;;;;;5095737;28;19907;-42
2022/07/16 05:51:31;;;;;;;;;;;;;;;;;;5095430;28;19914;-41
2022/07/16 05:53:56;;;;;;;;;;;;;;;;;;5095436;28;19919;-42
2022/07/16 05:56:21;;;;;;;;;;;;;;;;;;5095639;28;20347;-42
2022/07/16 05:58:46;;;;;;;;;;;;;;;;;;5095678;28;19916;-42
2022/07/16 06:01:11;;;;;;;;;;;;;;;;;;5095799;28;19962;-41
2022/07/16 06:03:36;;;;;;;;;;;;;;;;;;5095543;28;19909;-42
2022/07/16 06:06:01;;;;;;;;;;;;;;;;;;5095651;28;20489;-41
2022/07/16 06:08:26;;;;;;;;;;;;;;;;;;5095528;28;20349;-41
2022/07/16 06:10:51;;;;;;;;;;;;;;;;;;5095336;28;19998;-41
2022/07/16 06:13:17;;;;;;;;;;;;;;;;;;5095289;28;19916;-41
2022/07/16 06:15:42;;;;;;;;;;;;;;;;;;5096605;28;19950;-41
2022/07/16 06:18:07;;;;;;;;;;;;;;;;;;5099458;28;19998;-42
2022/07/16 06:20:32;;;;;;;;;;;;;;;;;;5099747;28;19915;-41
2022/07/16 06:22:57;;;;;;;;;;;;;;;;;;5099766;28;19915;-41
2022/07/16 06:25:22;;;;;;;;;;;;;;;;;;5099476;28;19948;-42
2022/07/16 06:27:47;;;;;;;;;;;;;;;;;;5099726;28;19908;-42
2022/07/16 06:30:13;;;;;;;;;;;;;;;;;;5099058;28;19912;-42
2022/07/16 06:32:39;;;;;;;;;;;;;;;;;;5099102;28;19916;-41
2022/07/16 06:35:04;;;;;;;;;;;;;;;;;;5099140;28;20268;-42
2022/07/16 06:37:30;;;;;;;;;;;;;;;;;;5098921;28;19915;-41
2022/07/16 06:39:55;;;;;;;;;;;;;;;;;;5098884;28;20373;-42
2022/07/16 06:42:20;;;;;;;;;;;;;;;;;;5098882;28;19908;-43
2022/07/16 06:44:45;;;;;;;;;;;;;;;;;;5106750;28;19911;-43
2022/07/16 06:47:10;;;;;;;;;;;;;;;;;;5119150;28;20259;-42
2022/07/16 06:49:35;;;;;;;;;;;;;;;;;;5119436;27;19912;-42
2022/07/16 06:52:00;;;;;;;;;;;;;;;;;;5119420;28;19960;-42
2022/07/16 06:54:25;;;;;;;;;;;;;;;;;;5119213;27;19911;-42
2022/07/16 06:56:51;;;;;;;;;;;;;;;;;;5119418;28;19912;-42
2022/07/16 06:59:16;;;;;;;;;;;;;;;;;;5118810;28;20371;-41
2022/07/16 07:01:41;;;;;;;;;;;;;;;;;;5098794;27;19915;-40
2022/07/16 07:04:06;;;;;;;;;;;;;;;;;;5098775;28;19909;-42
2022/07/16 07:06:31;;;;;;;;;;;;;;;;;;5098800;28;20375;-41
2022/07/16 07:08:56;;;;;;;;;;;;;;;;;;5098826;28;19970;-42
2022/07/16 07:11:21;;;;;;;;;;;;;;;;;;5098703;28;20412;-42
2022/07/16 07:13:46;;;;;;;;;;;;;;;;;;5098682;28;19919;-42
2022/07/16 07:16:11;;;;;;;;;;;;;;;;;;5099470;28;20329;-41
2022/07/16 07:18:37;;;;;;;;;;;;;;;;;;5098541;28;19908;-42
2022/07/16 07:21:02;;;;;;;;;;;;;;;;;;5099177;28;19908;-41
2022/07/16 07:23:27;;;;;;;;;;;;;;;;;;5098776;28;19908;-42
2022/07/16 07:25:52;;;;;;;;;;;;;;;;;;5098698;28;19912;-42
2022/07/16 07:28:17;;;;;;;;;;;;;;;;;;5098142;28;19905;-42
2022/07/16 07:30:42;;;;;;;;;;;;;;;;;;5098207;28;19908;-42
2022/07/16 07:33:07;;;;;;;;;;;;;;;;;;5098043;28;19969;-41
2022/07/16 07:35:32;;;;;;;;;;;;;;;;;;5098410;28;19912;-40
2022/07/16 07:37:58;;;;;;;;;;;;;;;;;;5098642;28;20359;-44
2022/07/16 07:40:23;;;;;;;;;;;;;;;;;;5098050;28;20362;-42
2022/07/16 07:42:48;;;;;;;;;;;;;;;;;;5098582;28;19919;-41
2022/07/16 07:45:13;;;;;;;;;;;;;;;;;;5097952;28;20053;-41
2022/07/16 07:47:38;;;;;;;;;;;;;;;;;;5097838;28;19913;-40
2022/07/16 07:50:04;;;;;;;;;;;;;;;;;;5096600;28;20030;-44
2022/07/16 07:52:29;;;;;;;;;;;;;;;;;;5097505;28;19912;-41
2022/07/16 07:54:54;;;;;;;;;;;;;;;;;;5097623;28;19915;-41
2022/07/16 07:57:19;;;;;;;;;;;;;;;;;;5097603;28;20412;-42
2022/07/16 07:59:44;;;;;;;;;;;;;;;;;;5097551;28;19931;-42
2022/07/16 08:02:09;;;;;;;;;;;;;;;;;;5097589;28;19912;-41
2022/07/16 08:04:35;;;;;;;;;;;;;;;;;;5104688;22;19992;-42
2022/07/16 08:07:00;;;;;;;;;;;;;;;;;;5097577;28;19922;-41
2022/07/16 08:09:25;;;;;;;;;;;;;;;;;;5097289;28;20006;-41
2022/07/16 08:11:50;;;;;;;;;;;;;;;;;;5097349;28;19994;-42
2022/07/16 08:14:15;;;;;;;;;;;;;;;;;;5097441;28;19915;-42
2022/07/16 08:16:40;;;;;;;;;;;;;;;;;;5097235;28;19960;-42
2022/07/16 08:19:06;;;;;;;;;;;;;;;;;;5097265;28;20020;-41
2022/07/16 08:21:31;;;;;;;;;;;;;;;;;;5097047;28;19997;-43
2022/07/16 08:26:40;;;;;;;;;;;;;;;;;;5097300;28;19915;-42
2022/07/16 08:29:05;;;;;;;;;;;;;;;;;;5097338;28;19912;-42
2022/07/16 08:31:30;;;;;;;;;;;;;;;;;;5096975;28;20277;-42
2022/07/16 08:33:55;;;;;;;;;;;;;;;;;;5096800;28;19934;-42
2022/07/16 08:36:20;;;;;;;;;;;;;;;;;;5096981;28;19908;-42
2022/07/16 08:38:45;;;;;;;;;;;;;;;;;;5096228;28;19920;-42
2022/07/16 08:41:10;;;;;;;;;;;;;;;;;;5096570;28;19996;-43
2022/07/16 08:43:35;;;;;;;;;;;;;;;;;;5096670;28;19940;-42
2022/07/16 08:46:01;;;;;;;;;;;;;;;;;;5096845;28;19999;-42
2022/07/16 08:48:26;;;;;;;;;;;;;;;;;;5096565;28;19951;-42
2022/07/16 08:50:51;;;;;;;;;;;;;;;;;;5096307;28;19915;-42
2022/07/16 08:53:16;;;;;;;;;;;;;;;;;;5096195;28;19982;-42
2022/07/16 08:55:41;;;;;;;;;;;;;;;;;;5096445;28;19908;-42
2022/07/16 08:58:06;;;;;;;;;;;;;;;;;;5096437;28;20373;-42
2022/07/16 09:00:31;;;;;;;;;;;;;;;;;;5096223;28;19912;-42
2022/07/16 09:02:57;;;;;;;;;;;;;;;;;;5096387;28;19954;-42
2022/07/16 09:05:22;;;;;;;;;;;;;;;;;;5096235;28;19920;-43
2022/07/16 09:07:47;;;;;;;;;;;;;;;;;;5095974;28;19912;-42
2022/07/16 09:10:12;;;;;;;;;;;;;;;;;;5096270;28;19968;-41
2022/07/16 09:12:37;;;;;;;;;;;;;;;;;;5096242;28;19912;-42
2022/07/16 09:15:02;;;;;;;;;;;;;;;;;;5095874;28;19916;-42
2022/07/16 09:17:27;;;;;;;;;;;;;;;;;;5096064;28;20283;-42
2022/07/16 09:19:52;;;;;;;;;;;;;;;;;;5095590;28;19908;-42
2022/07/16 09:22:17;;;;;;;;;;;;;;;;;;5095775;28;19916;-42
2022/07/16 09:24:43;;;;;;;;;;;;;;;;;;5095695;28;19919;-42
2022/07/16 09:27:08;;;;;;;;;;;;;;;;;;5095707;28;20417;-42
2022/07/16 09:29:33;;;;;;;;;;;;;;;;;;5096363;28;20267;-42
2022/07/16 09:31:58;;;;;;;;;;;;;;;;;;5094873;28;19904;-40
2022/07/16 09:34:23;;;;;;;;;;;;;;;;;;5096019;28;19916;-41
2022/07/16 09:36:48;;;;;;;;;;;;;;;;;;5095950;28;19908;-42
2022/07/16 09:39:13;;;;;;;;;;;;;;;;;;5095715;28;19908;-40
2022/07/16 09:41:38;;;;;;;;;;;;;;;;;;5095371;28;19908;-42
2022/07/16 09:44:04;;;;;;;;;;;;;;;;;;5095528;28;19908;-42
2022/07/16 09:46:29;;;;;;;;;;;;;;;;;;5095602;28;19912;-42
2022/07/16 09:48:54;;;;;;;;;;;;;;;;;;5095634;28;19914;-42
2022/07/16 09:51:19;;;;;;;;;;;;;;;;;;5094782;28;19915;-42
2022/07/16 09:53:46;;;;;;;;;;;;;;;;;;5094987;28;20248;-42
2022/07/16 09:56:11;;;;;;;;;;;;;;;;;;5095350;28;20377;-42
2022/07/16 09:58:36;;;;;;;;;;;;;;;;;;5095908;28;19904;-42
2022/07/16 10:01:01;;;;;;;;;;;;;;;;;;5095108;28;19912;-42
2022/07/16 10:03:26;;;;;;;;;;;;;;;;;;5095226;28;20003;-44
2022/07/16 10:05:52;;;;;;;;;;;;;;;;;;5094834;28;20019;-42
2022/07/16 10:08:17;;;;;;;;;;;;;;;;;;5094958;28;19915;-42
2022/07/16 10:10:42;;;;;;;;;;;;;;;;;;5095218;28;19908;-45
2022/07/16 10:13:07;;;;;;;;;;;;;;;;;;5094872;28;19912;-42
2022/07/16 10:15:32;;;;;;;;;;;;;;;;;;5094766;28;19967;-42
2022/07/16 10:17:58;;;;;;;;;;;;;;;;;;5095525;28;19961;-43
2022/07/16 10:20:23;;;;;;;;;;;;;;;;;;5094898;28;20324;-42
2022/07/16 10:22:48;;;;;;;;;;;;;;;;;;5093631;28;19912;-42
2022/07/16 10:25:13;;;;;;;;;;;;;;;;;;5094933;28;19911;-43
2022/07/16 10:27:38;;;;;;;;;;;;;;;;;;5094953;28;19908;-43
2022/07/16 10:30:03;;;;;;;;;;;;;;;;;;5095223;28;19915;-41
2022/07/16 10:32:30;;;;;;;;;;;;;;;;;;5095018;28;19908;-41
2022/07/16 10:34:55;;;;;;;;;;;;;;;;;;5095047;28;19908;-40
2022/07/16 10:37:20;;;;;;;;;;;;;;;;;;5095120;28;20014;-43
2022/07/16 10:39:45;;;;;;;;;;;;;;;;;;5095006;28;20015;-42
2022/07/16 10:42:10;;;;;;;;;;;;;;;;;;5093582;28;19915;-41
2022/07/16 10:44:35;;;;;;;;;;;;;;;;;;5095069;28;20351;-44
2022/07/16 10:47:00;;;;;;;;;;;;;;;;;;5094981;28;19912;-44
2022/07/16 10:49:25;;;;;;;;;;;;;;;;;;5094854;28;19908;-41
2022/07/16 10:51:51;;;;;;;;;;;;;;;;;;5094803;28;19908;-41
2022/07/16 10:54:16;;;;;;;;;;;;;;;;;;5094534;28;20347;-43
2022/07/16 10:56:41;;;;;;;;;;;;;;;;;;5094790;28;19908;-43
2022/07/16 10:59:06;;;;;;;;;;;;;;;;;;5094801;28;19915;-43
2022/07/16 11:01:31;;;;;;;;;;;;;;;;;;5095044;28;19908;-44
2022/07/16 11:03:56;;;;;;;;;;;;;;;;;;5098409;28;20381;-43
2022/07/16 11:06:21;;;;;;;;;;;;;;;;;;5098399;28;19981;-43
2022/07/16 11:08:47;;;;;;;;;;;;;;;;;;5098617;28;19908;-43
2022/07/16 11:11:12;;;;;;;;;;;;;;;;;;5098448;28;19930;-41
2022/07/16 11:13:37;;;;;;;;;;;;;;;;;;5098292;28;19912;-41
2022/07/16 11:16:02;;;;;;;;;;;;;;;;;;5098163;28;19908;-43
2022/07/16 11:18:27;;;;;;;;;;;;;;;;;;5098057;28;19908;-43
2022/07/16 11:20:52;;;;;;;;;;;;;;;;;;5098043;28;19916;-42
2022/07/16 11:23:18;;;;;;;;;;;;;;;;;;5097911;28;19916;-43
2022/07/16 11:25:43;;;;;;;;;;;;;;;;;;5098050;28;19915;-42
2022/07/16 11:28:08;;;;;;;;;;;;;;;;;;5097975;28;19934;-42
2022/07/16 11:30:34;;;;;;;;;;;;;;;;;;5097760;28;20003;-42
2022/07/16 11:32:59;;;;;;;;;;;;;;;;;;5097751;28;20281;-43
2022/07/16 11:35:24;;;;;;;;;;;;;;;;;;5097630;28;20312;-43
2022/07/16 11:37:49;;;;;;;;;;;;;;;;;;5097392;28;19961;-42
2022/07/16 11:40:14;;;;;;;;;;;;;;;;;;5097558;28;20011;-43
2022/07/16 11:42:40;;;;;;;;;;;;;;;;;;5097410;28;19912;-42
2022/07/16 11:45:06;;;;;;;;;;;;;;;;;;5097394;28;19908;-43
2022/07/16 11:47:31;;;;;;;;;;;;;;;;;;5097363;28;19915;-43
2022/07/16 11:49:56;;;;;;;;;;;;;;;;;;5097296;28;19908;-43
2022/07/16 11:52:22;;;;;;;;;;;;;;;;;;5097205;28;20378;-43
2022/07/16 11:54:48;;;;;;;;;;;;;;;;;;5097383;28;20381;-45
2022/07/16 11:57:13;;;;;;;;;;;;;;;;;;5097211;28;19977;-42
2022/07/16 11:59:38;;;;;;;;;;;;;;;;;;5097002;28;19947;-44
2022/07/16 12:02:03;;;;;;;;;;;;;;;;;;5097034;28;20012;-44
2022/07/16 12:04:28;;;;;;;;;;;;;;;;;;5096706;28;19951;-43
2022/07/16 12:06:53;;;;;;;;;;;;;;;;;;5097394;28;19918;-43
2022/07/16 12:09:18;;;;;;;;;;;;;;;;;;5097210;28;19919;-43
2022/07/16 12:11:43;;;;;;;;;;;;;;;;;;5097083;28;19914;-42
2022/07/16 12:14:08;;;;;;;;;;;;;;;;;;5095793;28;19916;-42
2022/07/16 12:16:33;;;;;;;;;;;;;;;;;;5096862;28;19914;-42
2022/07/16 12:18:59;;;;;;;;;;;;;;;;;;5096678;28;19960;-43
2022/07/16 12:21:24;;;;;;;;;;;;;;;;;;5096568;28;19919;-43
2022/07/16 12:23:49;;;;;;;;;;;;;;;;;;5096819;28;19915;-44
2022/07/16 12:26:14;;;;;;;;;;;;;;;;;;5096937;28;19908;-43
2022/07/16 12:28:40;;;;;;;;;;;;;;;;;;5096919;28;19908;-41
2022/07/16 12:31:05;;;;;;;;;;;;;;;;;;5096925;28;19975;-41
2022/07/16 12:33:30;;;;;;;;;;;;;;;;;;5096724;28;20011;-42
2022/07/16 12:35:55;;;;;;;;;;;;;;;;;;5096841;28;19980;-42
2022/07/16 12:38:20;;;;;;;;;;;;;;;;;;5096803;28;19905;-42
2022/07/16 12:40:45;;;;;;;;;;;;;;;;;;5097194;28;19912;-42
2022/07/16 12:43:10;;;;;;;;;;;;;;;;;;5096795;28;19912;-41
2022/07/16 12:45:36;;;;;;;;;;;;;;;;;;5095380;28;19912;-41
2022/07/16 12:48:01;;;;;;;;;;;;;;;;;;5096813;28;19908;-41
2022/07/16 12:50:26;;;;;;;;;;;;;;;;;;5096774;28;19909;-42
2022/07/16 12:52:51;;;;;;;;;;;;;;;;;;5096387;28;19912;-42
2022/07/16 13:00:44;;;;;;;;;;;;;;;;;;5096340;28;19961;-42
2022/07/16 13:03:09;;;;;;;;;;;;;;;;;;5096416;28;19908;-41
2022/07/16 13:05:34;;;;;;;;;;;;;;;;;;5096613;28;20355;-42
2022/07/16 13:07:59;;;;;;;;;;;;;;;;;;5096224;28;19935;-41
2022/07/16 13:10:24;;;;;;;;;;;;;;;;;;5096243;28;19915;-41
2022/07/16 13:12:50;;;;;;;;;;;;;;;;;;5096102;28;19912;-41
2022/07/16 13:15:16;;;;;;;;;;;;;;;;;;5096283;28;19916;-41
2022/07/16 13:17:42;;;;;;;;;;;;;;;;;;5096301;28;19908;-41
2022/07/16 13:20:07;;;;;;;;;;;;;;;;;;5096224;28;19931;-41
2022/07/16 13:22:32;;;;;;;;;;;;;;;;;;5095694;28;19908;-41
2022/07/16 13:24:57;;;;;;;;;;;;;;;;;;5094342;28;19969;-42
2022/07/16 13:27:22;;;;;;;;;;;;;;;;;;5095741;28;19908;-42
2022/07/16 13:29:47;;;;;;;;;;;;;;;;;;5095799;28;19916;-41
2022/07/16 13:32:12;;;;;;;;;;;;;;;;;;5095475;28;20279;-41
2022/07/16 13:34:37;;;;;;;;;;;;;;;;;;5095330;28;19912;-43
2022/07/16 13:37:02;;;;;;;;;;;;;;;;;;5095404;28;19972;-41
2022/07/16 13:39:29;;;;;;;;;;;;;;;;;;5095360;28;20381;-42
2022/07/16 13:41:54;;;;;;;;;;;;;;;;;;5095751;28;19916;-42
2022/07/16 13:44:20;;;;;;;;;;;;;;;;;;5095722;28;19908;-42
2022/07/16 13:46:46;;;;;;;;;;;;;;;;;;5095505;28;20375;-41
2022/07/16 13:49:11;;;;;;;;;;;;;;;;;;5095514;28;20022;-41
2022/07/16 13:51:36;;;;;;;;;;;;;;;;;;5095490;28;20350;-42
2022/07/16 13:54:02;;;;;;;;;;;;;;;;;;5095186;28;20010;-42
2022/07/16 13:56:27;;;;;;;;;;;;;;;;;;5095122;28;19983;-41
2022/07/16 13:58:52;;;;;;;;;;;;;;;;;;5095646;28;19962;-43
2022/07/16 14:01:17;;;;;;;;;;;;;;;;;;5095223;28;19961;-41
2022/07/16 14:03:42;;;;;;;;;;;;;;;;;;5095579;28;19912;-42
2022/07/16 14:06:08;;;;;;;;;;;;;;;;;;5095034;28;19920;-42
2022/07/16 14:08:33;;;;;;;;;;;;;;;;;;5095123;28;19915;-42
2022/07/16 14:10:59;;;;;;;;;;;;;;;;;;5094969;28;19912;-41
2022/07/16 14:13:25;;;;;;;;;;;;;;;;;;5094742;28;19912;-43
2022/07/16 14:15:50;;;;;;;;;;;;;;;;;;5095097;28;19908;-43
2022/07/16 14:18:15;;;;;;;;;;;;;;;;;;5094803;28;19912;-41
2022/07/16 14:20:40;;;;;;;;;;;;;;;;;;5094790;28;19916;-41
2022/07/16 14:23:05;;;;;;;;;;;;;;;;;;5093977;28;19919;-44
2022/07/16 14:25:30;;;;;;;;;;;;;;;;;;5094736;28;19915;-43
2022/07/16 14:27:55;;;;;;;;;;;;;;;;;;5094946;28;20262;-43
2022/07/16 14:30:21;;;;;;;;;;;;;;;;;;5094686;28;19904;-40
2022/07/16 14:32:46;;;;;;;;;;;;;;;;;;5094618;28;19950;-43
2022/07/16 14:35:11;;;;;;;;;;;;;;;;;;5094591;28;19912;-42
2022/07/16 14:37:36;;;;;;;;;;;;;;;;;;5096717;28;20309;-44
2022/07/16 14:40:01;;;;;;;;;;;;;;;;;;5098739;28;20003;-41
2022/07/16 14:42:27;;;;;;;;;;;;;;;;;;5098539;28;19908;-43
2022/07/16 14:44:52;;;;;;;;;;;;;;;;;;5098593;28;20298;-42
2022/07/16 14:47:17;;;;;;;;;;;;;;;;;;5098552;28;19961;-43
2022/07/16 14:49:42;;;;;;;;;;;;;;;;;;5098687;28;19947;-44
2022/07/16 14:52:07;;;;;;;;;;;;;;;;;;5098341;28;19908;-43
2022/07/16 14:54:32;;;;;;;;;;;;;;;;;;5098166;28;19911;-42
2022/07/16 14:56:57;;;;;;;;;;;;;;;;;;5098403;28;19908;-43
2022/07/16 14:59:22;;;;;;;;;;;;;;;;;;5098172;28;19912;-42
2022/07/16 15:01:48;;;;;;;;;;;;;;;;;;5098144;28;19908;-43
2022/07/16 15:04:13;;;;;;;;;;;;;;;;;;5098222;28;19908;-42
2022/07/16 15:06:39;;;;;;;;;;;;;;;;;;5097952;28;19916;-44
2022/07/16 15:09:04;;;;;;;;;;;;;;;;;;5098354;28;19959;-42
2022/07/16 15:11:29;;;;;;;;;;;;;;;;;;5096583;28;19909;-41
2022/07/16 15:13:54;;;;;;;;;;;;;;;;;;5097949;28;19938;-42
2022/07/16 15:16:19;;;;;;;;;;;;;;;;;;5098007;28;19953;-43
2022/07/16 15:18:44;;;;;;;;;;;;;;;;;;5098437;28;19915;-43
2022/07/16 15:21:09;;;;;;;;;;;;;;;;;;5097907;28;19917;-43
2022/07/16 15:23:35;;;;;;;;;;;;;;;;;;5097792;28;19919;-43
2022/07/16 15:26:00;;;;;;;;;;;;;;;;;;5097848;28;19915;-43
2022/07/16 15:28:25;;;;;;;;;;;;;;;;;;5096479;28;20370;-43
2022/07/16 15:30:50;;;;;;;;;;;;;;;;;;5097583;28;19908;-43
2022/07/16 15:35:59;;;;;;;;;;;;;;;;;;5097801;28;20474;-42
2022/07/16 15:38:25;;;;;;;;;;;;;;;;;;5095321;28;19956;-43
2022/07/16 15:40:50;;;;;;;;;;;;;;;;;;5097427;28;19955;-43
2022/07/16 15:43:16;;;;;;;;;;;;;;;;;;5097571;28;19914;-43
2022/07/16 15:45:41;;;;;;;;;;;;;;;;;;5097599;28;19998;-42
2022/07/16 15:48:06;;;;;;;;;;;;;;;;;;5097323;28;19951;-42
2022/07/16 15:50:32;;;;;;;;;;;;;;;;;;5097335;28;20430;-43
2022/07/16 15:52:57;;;;;;;;;;;;;;;;;;5097412;28;19919;-42
2022/07/16 15:55:22;;;;;;;;;;;;;;;;;;5097255;28;19919;-43
2022/07/16 15:57:47;;;;;;;;;;;;;;;;;;5097150;28;19915;-43
2022/07/16 16:00:12;;;;;;;;;;;;;;;;;;5097525;28;19974;-43
2022/07/16 16:02:37;;;;;;;;;;;;;;;;;;5097379;28;19923;-42
2022/07/16 16:05:02;;;;;;;;;;;;;;;;;;5096798;28;19920;-43
2022/07/16 16:07:28;;;;;;;;;;;;;;;;;;5097067;28;19915;-42
2022/07/16 16:09:53;;;;;;;;;;;;;;;;;;5096849;28;19908;-42
2022/07/16 16:12:18;;;;;;;;;;;;;;;;;;5096794;28;20023;-42
2022/07/16 16:14:43;;;;;;;;;;;;;;;;;;5096679;28;20278;-42
2022/07/16 16:17:08;;;;;;;;;;;;;;;;;;5096702;28;19908;-42
2022/07/16 16:19:33;;;;;;;;;;;;;;;;;;5096864;28;19908;-43
2022/07/16 16:21:58;;;;;;;;;;;;;;;;;;5096643;28;20355;-42
2022/07/16 16:24:23;;;;;;;;;;;;;;;;;;5096932;28;20422;-44
2022/07/16 16:26:50;;;;;;;;;;;;;;;;;;5096047;28;20418;-43
2022/07/16 16:29:15;;;;;;;;;;;;;;;;;;5096725;28;19916;-42
2022/07/16 16:31:40;;;;;;;;;;;;;;;;;;5096672;28;19915;-43
2022/07/16 16:34:05;;;;;;;;;;;;;;;;;;5096472;28;19962;-42
2022/07/16 16:36:31;;;;;;;;;;;;;;;;;;5096466;28;20359;-42
2022/07/16 16:38:56;;;;;;;;;;;;;;;;;;5096250;28;19954;-43
2022/07/16 16:41:21;;;;;;;;;;;;;;;;;;5096266;28;19943;-43
2022/07/16 16:43:46;;;;;;;;;;;;;;;;;;5096292;28;19908;-44
2022/07/16 16:46:11;;;;;;;;;;;;;;;;;;5095166;28;19999;-43